Terminal Aerodrome Forecast
Issued by NWS

Home | Current Version | Previous Version | Text Only | Print | Product List | Glossary On
Versions: 1 2 3 4 5 6 7 8 9 10 11 12 13 14 15
000
FTUS43 KSGF 312300
TAFBBG
TAF
KBBG 312325Z 0100/0124 15011KT P6SM VCSH BKN080 OVC100
     FM010600 15011KT 6SM -SHRA BR BKN040 OVC060
     FM010800 16011KT 5SM -RA BR BKN020 WS020/21040KT
     FM011100 17009KT 4SM -RA BR OVC007
     FM011500 23009KT 3SM -DZ BR OVC007
     FM011900 28012G23KT 5SM -RADZ OVC007
     FM012200 30014G25KT P6SM OVC015=

USA.gov is the U.S. government's official web portal to all federal, state and local government web resources and services.